sensor_id;sensor_type;location;lat;lon;timestamp;temperature;humidity
28193;DHT22;15473;50.840;3.396;2022-08-01T00:02:28;20.80;99.90
28193;DHT22;15473;50.840;3.396;2022-08-01T00:04:57;20.80;99.90
28193;DHT22;15473;50.840;3.396;2022-08-01T00:07:26;20.80;99.90
28193;DHT22;15473;50.840;3.396;2022-08-01T00:09:54;20.80;99.90
28193;DHT22;15473;50.840;3.396;2022-08-01T00:12:21;20.80;99.90
28193;DHT22;15473;50.840;3.396;2022-08-01T00:14:49;20.80;99.90
28193;DHT22;15473;50.840;3.396;2022-08-01T00:17:17;20.80;99.90
28193;DHT22;15473;50.840;3.396;2022-08-01T00:19:46;20.70;99.90
28193;DHT22;15473;50.840;3.396;2022-08-01T00:22:14;20.70;99.90
28193;DHT22;15473;50.840;3.396;2022-08-01T00:24:41;20.70;99.90
28193;DHT22;15473;50.840;3.396;2022-08-01T00:27:09;20.70;99.90
28193;DHT22;15473;50.840;3.396;2022-08-01T00:29:37;20.70;99.90
28193;DHT22;15473;50.840;3.396;2022-08-01T00:32:05;20.80;99.90
28193;DHT22;15473;50.840;3.396;2022-08-01T00:34:33;20.80;99.90
28193;DHT22;15473;50.840;3.396;2022-08-01T00:37:00;20.80;99.90
28193;DHT22;15473;50.840;3.396;2022-08-01T00:39:28;20.70;99.90
28193;DHT22;15473;50.840;3.396;2022-08-01T00:41:56;20.80;99.90
28193;DHT22;15473;50.840;3.396;2022-08-01T00:44:24;20.70;99.90
28193;DHT22;15473;50.840;3.396;2022-08-01T00:46:51;20.70;99.90
28193;DHT22;15473;50.840;3.396;2022-08-01T00:49:38;20.70;99.90
28193;DHT22;15473;50.840;3.396;2022-08-01T00:52:24;20.60;99.90
28193;DHT22;15473;50.840;3.396;2022-08-01T00:55:12;20.60;99.90
28193;DHT22;15473;50.840;3.396;2022-08-01T00:57:59;20.60;99.90
28193;DHT22;15473;50.840;3.396;2022-08-01T01:00:45;20.60;99.90
28193;DHT22;15473;50.840;3.396;2022-08-01T01:03:31;20.50;99.90
28193;DHT22;15473;50.840;3.396;2022-08-01T01:09:35;20.50;99.90
28193;DHT22;15473;50.840;3.396;2022-08-01T01:12:35;20.40;99.90
28193;DHT22;15473;50.840;3.396;2022-08-01T01:27:24;20.40;99.90
28193;DHT22;15473;50.840;3.396;2022-08-01T01:30:11;20.30;99.90
28193;DHT22;15473;50.840;3.396;2022-08-01T01:33:00;20.40;99.90
28193;DHT22;15473;50.840;3.396;2022-08-01T01:35:51;20.40;99.90
28193;DHT22;15473;50.840;3.396;2022-08-01T01:38:42;20.40;99.90
28193;DHT22;15473;50.840;3.396;2022-08-01T01:41:29;20.40;99.90
28193;DHT22;15473;50.840;3.396;2022-08-01T01:44:17;20.40;99.90
28193;DHT22;15473;50.840;3.396;2022-08-01T01:47:05;20.40;99.90
28193;DHT22;15473;50.840;3.396;2022-08-01T01:49:53;20.40;99.90
28193;DHT22;15473;50.840;3.396;2022-08-01T01:52:41;20.40;99.90
28193;DHT22;15473;50.840;3.396;2022-08-01T01:55:28;20.30;99.90
28193;DHT22;15473;50.840;3.396;2022-08-01T01:58:16;20.30;99.90
28193;DHT22;15473;50.840;3.396;2022-08-01T02:01:11;20.30;99.90
28193;DHT22;15473;50.840;3.396;2022-08-01T02:04:00;20.30;99.90
28193;DHT22;15473;50.840;3.396;2022-08-01T02:06:50;20.30;99.90
28193;DHT22;15473;50.840;3.396;2022-08-01T02:09:41;20.40;99.90
28193;DHT22;15473;50.840;3.396;2022-08-01T02:12:31;20.40;99.90
28193;DHT22;15473;50.840;3.396;2022-08-01T02:15:18;20.30;99.90
28193;DHT22;15473;50.840;3.396;2022-08-01T02:18:06;20.30;99.90
28193;DHT22;15473;50.840;3.396;2022-08-01T02:20:54;20.30;99.90
28193;DHT22;15473;50.840;3.396;2022-08-01T02:23:42;20.30;99.90
28193;DHT22;15473;50.840;3.396;2022-08-01T02:26:30;20.30;99.90
28193;DHT22;15473;50.840;3.396;2022-08-01T02:29:21;20.30;99.90
28193;DHT22;15473;50.840;3.396;2022-08-01T02:32:08;20.30;99.90
28193;DHT22;15473;50.840;3.396;2022-08-01T02:34:57;20.30;99.90
28193;DHT22;15473;50.840;3.396;2022-08-01T02:37:45;20.30;99.90
28193;DHT22;15473;50.840;3.396;2022-08-01T02:40:34;20.30;99.90
28193;DHT22;15473;50.840;3.396;2022-08-01T02:43:26;20.30;99.90
28193;DHT22;15473;50.840;3.396;2022-08-01T02:46:23;20.30;99.90
28193;DHT22;15473;50.840;3.396;2022-08-01T02:49:10;20.30;99.90
28193;DHT22;15473;50.840;3.396;2022-08-01T02:52:03;20.30;99.90
28193;DHT22;15473;50.840;3.396;2022-08-01T02:54:53;20.20;99.90
28193;DHT22;15473;50.840;3.396;2022-08-01T02:57:42;20.20;99.90
28193;DHT22;15473;50.840;3.396;2022-08-01T03:00:30;20.20;99.90
28193;DHT22;15473;50.840;3.396;2022-08-01T03:03:18;20.20;99.90
28193;DHT22;15473;50.840;3.396;2022-08-01T03:06:05;20.20;99.90
28193;DHT22;15473;50.840;3.396;2022-08-01T03:08:52;20.10;99.90
28193;DHT22;15473;50.840;3.396;2022-08-01T03:11:44;20.10;99.90
28193;DHT22;15473;50.840;3.396;2022-08-01T03:14:33;20.00;99.90
28193;DHT22;15473;50.840;3.396;2022-08-01T03:17:24;19.90;99.90
28193;DHT22;15473;50.840;3.396;2022-08-01T03:20:16;19.90;99.90
28193;DHT22;15473;50.840;3.396;2022-08-01T03:23:06;19.90;99.90
28193;DHT22;15473;50.840;3.396;2022-08-01T03:25:56;19.90;99.90
28193;DHT22;15473;50.840;3.396;2022-08-01T03:29:14;19.90;99.90
28193;DHT22;15473;50.840;3.396;2022-08-01T03:31:52;19.80;99.90
28193;DHT22;15473;50.840;3.396;2022-08-01T03:34:39;19.80;99.90
28193;DHT22;15473;50.840;3.396;2022-08-01T03:37:29;19.80;99.90
28193;DHT22;15473;50.840;3.396;2022-08-01T03:40:30;19.70;99.90
28193;DHT22;15473;50.840;3.396;2022-08-01T03:43:22;19.70;99.90
28193;DHT22;15473;50.840;3.396;2022-08-01T03:49:28;19.70;99.90
28193;DHT22;15473;50.840;3.396;2022-08-01T03:52:11;19.70;99.90
28193;DHT22;15473;50.840;3.396;2022-08-01T03:55:06;19.60;99.90
28193;DHT22;15473;50.840;3.396;2022-08-01T03:57:52;19.60;99.90
28193;DHT22;15473;50.840;3.396;2022-08-01T04:00:43;19.60;99.90
28193;DHT22;15473;50.840;3.396;2022-08-01T04:03:32;19.60;99.90
28193;DHT22;15473;50.840;3.396;2022-08-01T04:06:19;19.70;99.90
28193;DHT22;15473;50.840;3.396;2022-08-01T04:09:07;19.60;99.90
28193;DHT22;15473;50.840;3.396;2022-08-01T04:11:53;19.70;99.90
28193;DHT22;15473;50.840;3.396;2022-08-01T04:14:41;19.70;99.90
28193;DHT22;15473;50.840;3.396;2022-08-01T04:17:26;19.70;99.90
28193;DHT22;15473;50.840;3.396;2022-08-01T04:20:13;19.70;99.90
28193;DHT22;15473;50.840;3.396;2022-08-01T04:23:00;19.70;99.90
28193;DHT22;15473;50.840;3.396;2022-08-01T04:25:48;19.70;99.90
28193;DHT22;15473;50.840;3.396;2022-08-01T04:28:37;19.70;99.90
28193;DHT22;15473;50.840;3.396;2022-08-01T04:31:26;19.70;99.90
28193;DHT22;15473;50.840;3.396;2022-08-01T04:34:16;19.70;99.90
28193;DHT22;15473;50.840;3.396;2022-08-01T04:37:03;19.70;99.90
28193;DHT22;15473;50.840;3.396;2022-08-01T04:39:53;19.70;99.90
28193;DHT22;15473;50.840;3.396;2022-08-01T04:42:41;19.80;99.90
28193;DHT22;15473;50.840;3.396;2022-08-01T04:45:28;19.80;99.90
28193;DHT22;15473;50.840;3.396;2022-08-01T04:48:19;19.80;99.90
28193;DHT22;15473;50.840;3.396;2022-08-01T04:51:14;19.80;99.90
28193;DHT22;15473;50.840;3.396;2022-08-01T04:54:12;19.90;99.90
28193;DHT22;15473;50.840;3.396;2022-08-01T04:56:58;19.80;99.90
28193;DHT22;15473;50.840;3.396;2022-08-01T04:59:48;19.80;99.90
28193;DHT22;15473;50.840;3.396;2022-08-01T05:02:39;19.90;99.90
28193;DHT22;15473;50.840;3.396;2022-08-01T05:05:26;19.90;99.90
28193;DHT22;15473;50.840;3.396;2022-08-01T05:08:12;20.00;99.90
28193;DHT22;15473;50.840;3.396;2022-08-01T05:10:57;20.00;99.90
28193;DHT22;15473;50.840;3.396;2022-08-01T05:13:45;20.00;99.90
28193;DHT22;15473;50.840;3.396;2022-08-01T05:16:31;20.00;99.90
28193;DHT22;15473;50.840;3.396;2022-08-01T05:19:17;20.00;99.90
28193;DHT22;15473;50.840;3.396;2022-08-01T05:22:10;20.00;99.90
28193;DHT22;15473;50.840;3.396;2022-08-01T05:24:56;20.00;99.90
28193;DHT22;15473;50.840;3.396;2022-08-01T05:27:42;20.00;99.90
28193;DHT22;15473;50.840;3.396;2022-08-01T05:30:28;20.00;99.90
28193;DHT22;15473;50.840;3.396;2022-08-01T05:33:14;20.00;99.90
28193;DHT22;15473;50.840;3.396;2022-08-01T05:36:01;20.00;99.90
28193;DHT22;15473;50.840;3.396;2022-08-01T05:38:47;20.10;99.90
28193;DHT22;15473;50.840;3.396;2022-08-01T05:41:33;20.10;99.90
28193;DHT22;15473;50.840;3.396;2022-08-01T05:44:20;20.20;99.90
28193;DHT22;15473;50.840;3.396;2022-08-01T05:47:07;20.20;99.90
28193;DHT22;15473;50.840;3.396;2022-08-01T05:49:52;20.30;99.90
28193;DHT22;15473;50.840;3.396;2022-08-01T05:52:42;20.40;99.90
28193;DHT22;15473;50.840;3.396;2022-08-01T05:55:29;20.50;99.90
28193;DHT22;15473;50.840;3.396;2022-08-01T05:58:15;20.60;99.90
28193;DHT22;15473;50.840;3.396;2022-08-01T06:01:06;20.70;99.90
28193;DHT22;15473;50.840;3.396;2022-08-01T06:03:51;20.80;99.90
28193;DHT22;15473;50.840;3.396;2022-08-01T06:06:39;20.90;99.90
28193;DHT22;15473;50.840;3.396;2022-08-01T06:09:24;20.90;99.90
28193;DHT22;15473;50.840;3.396;2022-08-01T06:12:11;21.00;99.90
28193;DHT22;15473;50.840;3.396;2022-08-01T06:14:59;21.10;99.90
28193;DHT22;15473;50.840;3.396;2022-08-01T06:17:46;21.20;99.90
28193;DHT22;15473;50.840;3.396;2022-08-01T06:20:32;21.20;99.90
28193;DHT22;15473;50.840;3.396;2022-08-01T06:23:19;21.40;99.90
28193;DHT22;15473;50.840;3.396;2022-08-01T06:26:07;21.40;99.90
28193;DHT22;15473;50.840;3.396;2022-08-01T06:28:53;21.40;99.90
28193;DHT22;15473;50.840;3.396;2022-08-01T06:31:40;21.40;99.90
28193;DHT22;15473;50.840;3.396;2022-08-01T06:34:28;21.30;99.90
28193;DHT22;15473;50.840;3.396;2022-08-01T06:37:14;21.30;99.90
28193;DHT22;15473;50.840;3.396;2022-08-01T06:39:42;21.30;99.90
28193;DHT22;15473;50.840;3.396;2022-08-01T06:42:10;21.30;99.90
28193;DHT22;15473;50.840;3.396;2022-08-01T06:44:59;21.20;99.90
28193;DHT22;15473;50.840;3.396;2022-08-01T06:47:45;21.40;99.90
28193;DHT22;15473;50.840;3.396;2022-08-01T06:50:38;21.60;99.90
28193;DHT22;15473;50.840;3.396;2022-08-01T06:53:26;21.90;99.90
28193;DHT22;15473;50.840;3.396;2022-08-01T06:56:12;22.20;99.90
28193;DHT22;15473;50.840;3.396;2022-08-01T06:58:58;22.10;99.90
28193;DHT22;15473;50.840;3.396;2022-08-01T07:01:45;21.80;99.90
28193;DHT22;15473;50.840;3.396;2022-08-01T07:04:32;21.60;99.90
28193;DHT22;15473;50.840;3.396;2022-08-01T07:07:19;21.60;99.90
28193;DHT22;15473;50.840;3.396;2022-08-01T07:10:06;21.50;99.90
28193;DHT22;15473;50.840;3.396;2022-08-01T07:12:53;21.60;99.90
28193;DHT22;15473;50.840;3.396;2022-08-01T07:15:41;21.80;99.90
28193;DHT22;15473;50.840;3.396;2022-08-01T07:18:28;21.90;99.90
28193;DHT22;15473;50.840;3.396;2022-08-01T07:21:15;21.90;99.90
28193;DHT22;15473;50.840;3.396;2022-08-01T07:24:03;22.10;99.90
28193;DHT22;15473;50.840;3.396;2022-08-01T07:26:51;22.20;99.90
28193;DHT22;15473;50.840;3.396;2022-08-01T07:29:41;22.50;99.90
28193;DHT22;15473;50.840;3.396;2022-08-01T07:32:28;22.70;99.90
28193;DHT22;15473;50.840;3.396;2022-08-01T07:35:14;22.90;99.90
28193;DHT22;15473;50.840;3.396;2022-08-01T07:38:01;22.80;99.90
28193;DHT22;15473;50.840;3.396;2022-08-01T07:40:54;22.80;99.90
28193;DHT22;15473;50.840;3.396;2022-08-01T07:43:40;22.70;99.90
28193;DHT22;15473;50.840;3.396;2022-08-01T07:46:26;22.40;99.90
28193;DHT22;15473;50.840;3.396;2022-08-01T07:49:12;22.30;99.90
28193;DHT22;15473;50.840;3.396;2022-08-01T07:51:59;22.30;99.90
28193;DHT22;15473;50.840;3.396;2022-08-01T07:54:45;22.60;99.90
28193;DHT22;15473;50.840;3.396;2022-08-01T07:57:32;22.70;99.90
28193;DHT22;15473;50.840;3.396;2022-08-01T08:00:18;23.10;99.90
28193;DHT22;15473;50.840;3.396;2022-08-01T08:03:04;23.20;99.90
28193;DHT22;15473;50.840;3.396;2022-08-01T08:05:51;23.30;99.90
28193;DHT22;15473;50.840;3.396;2022-08-01T08:08:37;23.50;99.90
28193;DHT22;15473;50.840;3.396;2022-08-01T08:11:23;23.80;99.90
28193;DHT22;15473;50.840;3.396;2022-08-01T08:14:09;23.70;99.90
28193;DHT22;15473;50.840;3.396;2022-08-01T08:16:55;23.60;99.90
28193;DHT22;15473;50.840;3.396;2022-08-01T08:19:41;23.60;99.90
28193;DHT22;15473;50.840;3.396;2022-08-01T08:22:28;23.70;99.90
28193;DHT22;15473;50.840;3.396;2022-08-01T08:25:13;23.70;99.90
28193;DHT22;15473;50.840;3.396;2022-08-01T08:28:00;23.70;99.90
28193;DHT22;15473;50.840;3.396;2022-08-01T08:30:46;23.70;99.90
28193;DHT22;15473;50.840;3.396;2022-08-01T08:33:33;23.70;99.90
28193;DHT22;15473;50.840;3.396;2022-08-01T08:36:19;23.60;99.90
28193;DHT22;15473;50.840;3.396;2022-08-01T08:39:05;23.50;99.90
28193;DHT22;15473;50.840;3.396;2022-08-01T08:41:52;23.60;99.90
28193;DHT22;15473;50.840;3.396;2022-08-01T08:44:40;23.70;99.90
28193;DHT22;15473;50.840;3.396;2022-08-01T08:47:28;23.90;99.90
28193;DHT22;15473;50.840;3.396;2022-08-01T08:50:15;23.90;99.90
28193;DHT22;15473;50.840;3.396;2022-08-01T08:53:03;23.90;99.90
28193;DHT22;15473;50.840;3.396;2022-08-01T08:55:50;24.10;99.90
28193;DHT22;15473;50.840;3.396;2022-08-01T08:58:36;24.20;99.90
28193;DHT22;15473;50.840;3.396;2022-08-01T09:01:23;24.40;99.90
28193;DHT22;15473;50.840;3.396;2022-08-01T09:04:10;24.30;99.90
28193;DHT22;15473;50.840;3.396;2022-08-01T09:06:57;24.20;99.90
28193;DHT22;15473;50.840;3.396;2022-08-01T09:09:44;24.10;99.90
28193;DHT22;15473;50.840;3.396;2022-08-01T09:12:30;24.10;99.90
28193;DHT22;15473;50.840;3.396;2022-08-01T09:15:16;24.10;99.90
28193;DHT22;15473;50.840;3.396;2022-08-01T09:18:03;24.10;99.90
28193;DHT22;15473;50.840;3.396;2022-08-01T09:20:50;24.10;99.90
28193;DHT22;15473;50.840;3.396;2022-08-01T09:23:42;24.00;99.90
28193;DHT22;15473;50.840;3.396;2022-08-01T09:29:22;23.90;99.90
28193;DHT22;15473;50.840;3.396;2022-08-01T09:32:08;23.80;99.90
28193;DHT22;15473;50.840;3.396;2022-08-01T09:34:55;23.70;99.90
28193;DHT22;15473;50.840;3.396;2022-08-01T09:37:41;23.70;99.90
28193;DHT22;15473;50.840;3.396;2022-08-01T09:40:43;23.60;99.90
28193;DHT22;15473;50.840;3.396;2022-08-01T09:43:18;23.60;99.90
28193;DHT22;15473;50.840;3.396;2022-08-01T09:46:11;23.70;99.90
28193;DHT22;15473;50.840;3.396;2022-08-01T09:49:03;23.90;99.90
28193;DHT22;15473;50.840;3.396;2022-08-01T09:51:50;24.20;99.90
28193;DHT22;15473;50.840;3.396;2022-08-01T09:54:37;24.30;99.90
28193;DHT22;15473;50.840;3.396;2022-08-01T09:57:24;24.20;99.90
28193;DHT22;15473;50.840;3.396;2022-08-01T10:00:17;24.40;99.90
28193;DHT22;15473;50.840;3.396;2022-08-01T10:05:53;24.80;99.90
28193;DHT22;15473;50.840;3.396;2022-08-01T10:08:46;24.90;99.90
28193;DHT22;15473;50.840;3.396;2022-08-01T10:11:33;24.90;99.90
28193;DHT22;15473;50.840;3.396;2022-08-01T10:14:24;24.90;99.90
28193;DHT22;15473;50.840;3.396;2022-08-01T10:17:13;25.00;99.90
28193;DHT22;15473;50.840;3.396;2022-08-01T10:20:02;25.20;99.90
28193;DHT22;15473;50.840;3.396;2022-08-01T10:22:49;25.20;99.90
28193;DHT22;15473;50.840;3.396;2022-08-01T10:25:40;25.40;99.90
28193;DHT22;15473;50.840;3.396;2022-08-01T10:28:27;25.60;99.90
28193;DHT22;15473;50.840;3.396;2022-08-01T10:31:16;25.60;99.90
28193;DHT22;15473;50.840;3.396;2022-08-01T10:34:05;25.70;99.90
28193;DHT22;15473;50.840;3.396;2022-08-01T10:36:51;25.80;99.90
28193;DHT22;15473;50.840;3.396;2022-08-01T10:39:39;25.60;99.90
28193;DHT22;15473;50.840;3.396;2022-08-01T10:42:26;25.50;99.90
28193;DHT22;15473;50.840;3.396;2022-08-01T10:45:14;25.50;99.90
28193;DHT22;15473;50.840;3.396;2022-08-01T10:48:08;25.40;99.90
28193;DHT22;15473;50.840;3.396;2022-08-01T10:50:57;25.40;99.90
28193;DHT22;15473;50.840;3.396;2022-08-01T10:53:47;25.50;99.90
28193;DHT22;15473;50.840;3.396;2022-08-01T10:56:49;25.70;99.90
28193;DHT22;15473;50.840;3.396;2022-08-01T10:59:36;25.80;99.90
28193;DHT22;15473;50.840;3.396;2022-08-01T11:02:32;26.00;99.90
28193;DHT22;15473;50.840;3.396;2022-08-01T11:05:23;26.30;99.90
28193;DHT22;15473;50.840;3.396;2022-08-01T11:08:20;26.50;99.90
28193;DHT22;15473;50.840;3.396;2022-08-01T11:11:02;26.60;99.90
28193;DHT22;15473;50.840;3.396;2022-08-01T11:14:03;26.40;99.90
28193;DHT22;15473;50.840;3.396;2022-08-01T11:16:51;26.10;99.90
28193;DHT22;15473;50.840;3.396;2022-08-01T11:20:06;25.90;99.90
28193;DHT22;15473;50.840;3.396;2022-08-01T11:28:43;25.60;99.90
28193;DHT22;15473;50.840;3.396;2022-08-01T11:31:32;25.50;99.90
28193;DHT22;15473;50.840;3.396;2022-08-01T11:34:18;25.50;99.90
28193;DHT22;15473;50.840;3.396;2022-08-01T11:37:27;25.40;99.90
28193;DHT22;15473;50.840;3.396;2022-08-01T11:40:25;25.60;99.90
28193;DHT22;15473;50.840;3.396;2022-08-01T11:43:16;25.80;99.90
28193;DHT22;15473;50.840;3.396;2022-08-01T11:46:03;25.90;99.90
28193;DHT22;15473;50.840;3.396;2022-08-01T11:49:21;26.00;99.90
28193;DHT22;15473;50.840;3.396;2022-08-01T11:51:39;26.00;99.90
28193;DHT22;15473;50.840;3.396;2022-08-01T11:54:31;25.80;99.90
28193;DHT22;15473;50.840;3.396;2022-08-01T11:57:24;25.80;99.90
28193;DHT22;15473;50.840;3.396;2022-08-01T12:00:13;26.00;99.90
28193;DHT22;15473;50.840;3.396;2022-08-01T12:03:02;26.10;99.90
28193;DHT22;15473;50.840;3.396;2022-08-01T12:05:48;26.20;99.90
28193;DHT22;15473;50.840;3.396;2022-08-01T12:08:35;26.10;99.90
28193;DHT22;15473;50.840;3.396;2022-08-01T12:11:22;25.90;99.90
28193;DHT22;15473;50.840;3.396;2022-08-01T12:14:08;25.90;99.90
28193;DHT22;15473;50.840;3.396;2022-08-01T12:16:56;25.90;99.90
28193;DHT22;15473;50.840;3.396;2022-08-01T12:19:42;25.80;99.90
28193;DHT22;15473;50.840;3.396;2022-08-01T12:22:29;25.70;99.90
28193;DHT22;15473;50.840;3.396;2022-08-01T12:25:17;25.60;99.90
28193;DHT22;15473;50.840;3.396;2022-08-01T12:28:05;25.50;99.90
28193;DHT22;15473;50.840;3.396;2022-08-01T12:30:52;25.60;99.90
28193;DHT22;15473;50.840;3.396;2022-08-01T12:33:45;25.70;99.90
28193;DHT22;15473;50.840;3.396;2022-08-01T12:36:31;25.60;99.90
28193;DHT22;15473;50.840;3.396;2022-08-01T12:39:18;25.40;99.90
28193;DHT22;15473;50.840;3.396;2022-08-01T12:42:10;25.30;99.90
28193;DHT22;15473;50.840;3.396;2022-08-01T12:44:55;25.40;99.90
28193;DHT22;15473;50.840;3.396;2022-08-01T12:47:42;25.60;99.90
28193;DHT22;15473;50.840;3.396;2022-08-01T12:50:31;25.80;99.90
28193;DHT22;15473;50.840;3.396;2022-08-01T12:53:17;25.90;99.90
28193;DHT22;15473;50.840;3.396;2022-08-01T12:56:04;26.10;99.90
28193;DHT22;15473;50.840;3.396;2022-08-01T12:58:50;26.10;99.90
28193;DHT22;15473;50.840;3.396;2022-08-01T13:01:38;26.10;99.90
28193;DHT22;15473;50.840;3.396;2022-08-01T13:04:26;26.40;99.90
28193;DHT22;15473;50.840;3.396;2022-08-01T13:07:12;26.70;99.90
28193;DHT22;15473;50.840;3.396;2022-08-01T13:09:58;26.80;99.90
28193;DHT22;15473;50.840;3.396;2022-08-01T13:13:04;27.00;99.90
28193;DHT22;15473;50.840;3.396;2022-08-01T13:15:52;27.20;99.90
28193;DHT22;15473;50.840;3.396;2022-08-01T13:18:40;27.20;99.90
28193;DHT22;15473;50.840;3.396;2022-08-01T13:21:28;27.10;99.90
28193;DHT22;15473;50.840;3.396;2022-08-01T13:24:15;27.00;99.90
28193;DHT22;15473;50.840;3.396;2022-08-01T13:27:04;26.90;99.90
28193;DHT22;15473;50.840;3.396;2022-08-01T13:30:15;26.90;99.90
28193;DHT22;15473;50.840;3.396;2022-08-01T13:32:58;26.90;99.90
28193;DHT22;15473;50.840;3.396;2022-08-01T13:35:46;27.10;99.90
28193;DHT22;15473;50.840;3.396;2022-08-01T13:38:33;27.30;99.90
28193;DHT22;15473;50.840;3.396;2022-08-01T13:41:37;27.50;99.90
28193;DHT22;15473;50.840;3.396;2022-08-01T13:44:24;27.50;99.90
28193;DHT22;15473;50.840;3.396;2022-08-01T13:47:10;27.40;99.90
28193;DHT22;15473;50.840;3.396;2022-08-01T13:49:56;27.10;99.90
28193;DHT22;15473;50.840;3.396;2022-08-01T13:52:44;26.70;99.90
28193;DHT22;15473;50.840;3.396;2022-08-01T13:55:31;26.50;99.90
28193;DHT22;15473;50.840;3.396;2022-08-01T13:58:17;26.30;99.90
28193;DHT22;15473;50.840;3.396;2022-08-01T14:01:04;26.20;99.90
28193;DHT22;15473;50.840;3.396;2022-08-01T14:03:50;26.30;99.90
28193;DHT22;15473;50.840;3.396;2022-08-01T14:06:37;26.10;99.90
28193;DHT22;15473;50.840;3.396;2022-08-01T14:09:23;25.80;99.90
28193;DHT22;15473;50.840;3.396;2022-08-01T14:12:29;25.70;99.90
28193;DHT22;15473;50.840;3.396;2022-08-01T14:15:16;25.80;99.90
28193;DHT22;15473;50.840;3.396;2022-08-01T14:18:03;25.60;99.90
28193;DHT22;15473;50.840;3.396;2022-08-01T14:20:49;25.40;99.90
28193;DHT22;15473;50.840;3.396;2022-08-01T14:23:35;25.40;99.90
28193;DHT22;15473;50.840;3.396;2022-08-01T14:26:22;25.30;99.90
28193;DHT22;15473;50.840;3.396;2022-08-01T14:29:08;25.30;99.90
28193;DHT22;15473;50.840;3.396;2022-08-01T14:31:54;25.40;99.90
28193;DHT22;15473;50.840;3.396;2022-08-01T14:34:41;25.60;99.90
28193;DHT22;15473;50.840;3.396;2022-08-01T14:37:27;25.50;99.90
28193;DHT22;15473;50.840;3.396;2022-08-01T14:40:14;25.90;99.90
28193;DHT22;15473;50.840;3.396;2022-08-01T14:43:00;26.20;99.90
28193;DHT22;15473;50.840;3.396;2022-08-01T14:45:47;26.40;99.90
28193;DHT22;15473;50.840;3.396;2022-08-01T14:48:35;26.50;99.90
28193;DHT22;15473;50.840;3.396;2022-08-01T14:51:21;26.50;99.90
28193;DHT22;15473;50.840;3.396;2022-08-01T14:54:08;26.50;99.90
28193;DHT22;15473;50.840;3.396;2022-08-01T14:56:54;26.60;99.90
28193;DHT22;15473;50.840;3.396;2022-08-01T14:59:41;26.80;99.90
28193;DHT22;15473;50.840;3.396;2022-08-01T15:02:27;26.90;99.90
28193;DHT22;15473;50.840;3.396;2022-08-01T15:05:13;26.90;99.90
28193;DHT22;15473;50.840;3.396;2022-08-01T15:07:59;27.10;99.90
28193;DHT22;15473;50.840;3.396;2022-08-01T15:10:45;27.00;99.90
28193;DHT22;15473;50.840;3.396;2022-08-01T15:13:32;26.90;99.90
28193;DHT22;15473;50.840;3.396;2022-08-01T15:16:19;26.80;99.90
28193;DHT22;15473;50.840;3.396;2022-08-01T15:19:05;26.70;99.90
28193;DHT22;15473;50.840;3.396;2022-08-01T15:21:52;26.60;99.90
28193;DHT22;15473;50.840;3.396;2022-08-01T15:24:41;26.50;99.90
28193;DHT22;15473;50.840;3.396;2022-08-01T15:27:28;26.20;99.90
28193;DHT22;15473;50.840;3.396;2022-08-01T15:30:14;25.90;99.90
28193;DHT22;15473;50.840;3.396;2022-08-01T15:33:00;25.80;99.90
28193;DHT22;15473;50.840;3.396;2022-08-01T15:35:46;25.70;99.90
28193;DHT22;15473;50.840;3.396;2022-08-01T15:38:33;25.60;99.90
28193;DHT22;15473;50.840;3.396;2022-08-01T15:41:19;25.60;99.90
28193;DHT22;15473;50.840;3.396;2022-08-01T15:44:06;25.70;99.90
28193;DHT22;15473;50.840;3.396;2022-08-01T15:46:52;25.70;99.90
28193;DHT22;15473;50.840;3.396;2022-08-01T15:49:39;25.40;99.90
28193;DHT22;15473;50.840;3.396;2022-08-01T15:52:27;25.20;99.90
28193;DHT22;15473;50.840;3.396;2022-08-01T15:55:13;25.00;99.90
28193;DHT22;15473;50.840;3.396;2022-08-01T15:57:59;24.80;99.90
28193;DHT22;15473;50.840;3.396;2022-08-01T16:00:45;24.70;99.90
28193;DHT22;15473;50.840;3.396;2022-08-01T16:03:31;24.70;99.90
28193;DHT22;15473;50.840;3.396;2022-08-01T16:06:18;24.70;99.90
28193;DHT22;15473;50.840;3.396;2022-08-01T16:09:05;24.80;99.90
28193;DHT22;15473;50.840;3.396;2022-08-01T16:11:51;25.00;99.90
28193;DHT22;15473;50.840;3.396;2022-08-01T16:14:37;25.20;99.90
28193;DHT22;15473;50.840;3.396;2022-08-01T16:17:24;25.20;99.90
28193;DHT22;15473;50.840;3.396;2022-08-01T16:20:10;25.10;99.90
28193;DHT22;15473;50.840;3.396;2022-08-01T16:22:56;24.90;99.90
28193;DHT22;15473;50.840;3.396;2022-08-01T16:25:43;24.80;99.90
28193;DHT22;15473;50.840;3.396;2022-08-01T16:28:29;24.80;99.90
28193;DHT22;15473;50.840;3.396;2022-08-01T16:31:17;24.90;99.90
28193;DHT22;15473;50.840;3.396;2022-08-01T16:34:04;24.90;99.90
28193;DHT22;15473;50.840;3.396;2022-08-01T16:36:50;24.90;99.90
28193;DHT22;15473;50.840;3.396;2022-08-01T16:39:38;24.90;99.90
28193;DHT22;15473;50.840;3.396;2022-08-01T16:42:25;24.90;99.90
28193;DHT22;15473;50.840;3.396;2022-08-01T16:45:11;24.90;99.90
28193;DHT22;15473;50.840;3.396;2022-08-01T16:47:59;24.90;99.90
28193;DHT22;15473;50.840;3.396;2022-08-01T16:50:46;24.70;99.90
28193;DHT22;15473;50.840;3.396;2022-08-01T16:53:36;24.60;99.90
28193;DHT22;15473;50.840;3.396;2022-08-01T16:56:23;24.60;99.90
28193;DHT22;15473;50.840;3.396;2022-08-01T16:59:09;24.70;99.90
28193;DHT22;15473;50.840;3.396;2022-08-01T17:01:55;24.80;99.90
28193;DHT22;15473;50.840;3.396;2022-08-01T17:04:42;24.70;99.90
28193;DHT22;15473;50.840;3.396;2022-08-01T17:07:28;24.60;99.90
28193;DHT22;15473;50.840;3.396;2022-08-01T17:10:14;24.60;99.90
28193;DHT22;15473;50.840;3.396;2022-08-01T17:13:02;24.60;99.90
28193;DHT22;15473;50.840;3.396;2022-08-01T17:15:50;24.70;99.90
28193;DHT22;15473;50.840;3.396;2022-08-01T17:18:37;24.70;99.90
28193;DHT22;15473;50.840;3.396;2022-08-01T17:21:23;24.60;99.90
28193;DHT22;15473;50.840;3.396;2022-08-01T17:24:10;24.50;99.90
28193;DHT22;15473;50.840;3.396;2022-08-01T17:26:56;24.50;99.90
28193;DHT22;15473;50.840;3.396;2022-08-01T17:29:43;24.50;99.90
28193;DHT22;15473;50.840;3.396;2022-08-01T17:32:29;24.50;99.90
28193;DHT22;15473;50.840;3.396;2022-08-01T17:35:15;24.50;99.90
28193;DHT22;15473;50.840;3.396;2022-08-01T17:38:01;24.50;99.90
28193;DHT22;15473;50.840;3.396;2022-08-01T17:40:53;24.50;99.90
28193;DHT22;15473;50.840;3.396;2022-08-01T17:43:40;24.40;99.90
28193;DHT22;15473;50.840;3.396;2022-08-01T17:46:26;24.40;99.90
28193;DHT22;15473;50.840;3.396;2022-08-01T17:49:15;24.30;99.90
28193;DHT22;15473;50.840;3.396;2022-08-01T17:52:04;24.30;99.90
28193;DHT22;15473;50.840;3.396;2022-08-01T17:54:50;24.30;99.90
28193;DHT22;15473;50.840;3.396;2022-08-01T17:57:37;24.30;99.90
28193;DHT22;15473;50.840;3.396;2022-08-01T18:00:27;24.20;99.90
28193;DHT22;15473;50.840;3.396;2022-08-01T18:03:14;24.20;99.90
28193;DHT22;15473;50.840;3.396;2022-08-01T18:06:02;24.20;99.90